Time;durP1;ratioP1;P1;durP2;ratioP2;P2;SDS_P1;SDS_P2;PMS_P1;PMS_P2;Temp;Humidity;BMP_temperature;BMP_pressure;BME280_temperature;BME280_humidity;BME280_pressure;Samples;Min_cycle;Max_cycle;Signal;HPM_P1;HPM_P2
2021/11/27 00:00:23;;;;;;;11.30;8.50;;;5.30;95.50;;;;;;2088935;28;20032;-88
2021/11/27 00:01:24;;;;;;;10.80;8.20;;;5.30;95.50;;;;;;2091030;28;20021;-88
2021/11/27 00:02:25;;;;;;;10.90;8.18;;;5.20;95.50;;;;;;2093651;28;20029;-88
2021/11/27 00:03:26;;;;;;;10.73;8.27;;;5.30;95.50;;;;;;2091086;28;20029;-89
2021/11/27 00:04:27;;;;;;;10.95;8.63;;;5.30;95.50;;;;;;2081334;28;20045;-88
2021/11/27 00:05:28;;;;;;;11.30;8.35;;;5.20;95.50;;;;;;2081568;28;20046;-88
2021/11/27 00:06:29;;;;;;;11.52;8.15;;;5.30;95.50;;;;;;2077960;28;20081;-87
2021/11/27 00:07:30;;;;;;;11.38;8.50;;;5.30;95.50;;;;;;2072554;28;20459;-89
2021/11/27 00:08:31;;;;;;;10.75;8.40;;;5.20;95.50;;;;;;2074795;28;20034;-88
2021/11/27 00:09:33;;;;;;;10.52;7.97;;;5.30;95.50;;;;;;2081734;28;20079;-88
2021/11/27 00:10:35;;;;;;;11.80;8.85;;;5.30;95.50;;;;;;2064843;28;20030;-88
2021/11/27 00:11:36;;;;;;;11.75;8.50;;;5.30;95.50;;;;;;2057209;28;20513;-88
2021/11/27 00:12:37;;;;;;;11.40;8.40;;;5.30;95.50;;;;;;2064155;28;20037;-89
2021/11/27 00:13:37;;;;;;;11.07;8.18;;;5.30;95.50;;;;;;2063967;28;20030;-89
2021/11/27 00:14:41;;;;;;;11.68;8.40;;;5.30;95.50;;;;;;2064511;28;20034;-89
2021/11/27 00:15:43;;;;;;;11.13;7.88;;;5.30;95.50;;;;;;2067511;28;20027;-88
2021/11/27 00:16:44;;;;;;;10.85;8.23;;;5.30;95.50;;;;;;2080485;28;20072;-88
2021/11/27 00:17:45;;;;;;;11.18;8.25;;;5.30;95.50;;;;;;2092865;28;20021;-90
2021/11/27 00:18:46;;;;;;;10.90;8.20;;;5.30;95.40;;;;;;2080580;28;20574;-88
2021/11/27 00:19:46;;;;;;;11.77;9.13;;;5.30;95.40;;;;;;2060924;28;20031;-88
2021/11/27 00:20:54;;;;;;;11.32;8.18;;;5.30;95.40;;;;;;2049152;28;20485;-88
2021/11/27 00:21:55;;;;;;;11.50;8.88;;;5.30;95.50;;;;;;2064930;28;20467;-88
2021/11/27 00:22:56;;;;;;;11.63;8.73;;;5.30;95.50;;;;;;2071399;28;20030;-88
2021/11/27 00:23:57;;;;;;;10.95;8.15;;;5.30;95.50;;;;;;2064936;28;20036;-88
2021/11/27 00:24:57;;;;;;;10.25;7.88;;;5.30;95.50;;;;;;2080252;28;20104;-89
2021/11/27 00:25:58;;;;;;;11.30;8.57;;;5.30;95.50;;;;;;2079076;28;20029;-87
2021/11/27 00:26:59;;;;;;;11.50;8.52;;;5.30;95.50;;;;;;2064251;28;20022;-86
2021/11/27 00:28:00;;;;;;;10.60;7.82;;;5.30;95.50;;;;;;2064356;28;20480;-87
2021/11/27 00:29:01;;;;;;;11.25;8.40;;;5.30;95.50;;;;;;2063933;28;20030;-87
2021/11/27 00:30:05;;;;;;;11.50;8.45;;;5.30;95.50;;;;;;2065359;28;20022;-88
2021/11/27 00:31:13;;;;;;;11.93;8.77;;;5.30;95.50;;;;;;2056642;28;20066;-89
2021/11/27 00:32:13;;;;;;;11.35;8.32;;;5.30;95.60;;;;;;2074162;28;20034;-88
2021/11/27 00:33:15;;;;;;;10.82;7.88;;;5.30;95.50;;;;;;2089564;28;20124;-89
2021/11/27 00:34:16;;;;;;;10.27;7.53;;;5.30;95.60;;;;;;2090211;28;20032;-89
2021/11/27 00:35:19;;;;;;;11.90;8.00;;;5.30;95.60;;;;;;2079489;28;20438;-89
2021/11/27 00:36:20;;;;;;;11.25;8.23;;;5.30;95.60;;;;;;2065140;28;20029;-89
2021/11/27 00:37:21;;;;;;;11.50;8.25;;;5.30;95.60;;;;;;2080483;28;20076;-90
2021/11/27 00:38:22;;;;;;;11.20;8.07;;;5.20;95.50;;;;;;2082647;28;20030;-89
2021/11/27 00:39:23;;;;;;;10.82;7.95;;;5.30;95.50;;;;;;2069208;28;20022;-89
2021/11/27 00:40:25;;;;;;;11.43;8.30;;;5.30;95.50;;;;;;2068778;28;20026;-89
2021/11/27 00:41:26;;;;;;;10.82;7.90;;;5.30;95.50;;;;;;2075580;28;20145;-89
2021/11/27 00:42:27;;;;;;;11.25;7.82;;;5.30;95.50;;;;;;2073493;28;20176;-89
2021/11/27 00:43:28;;;;;;;10.52;7.70;;;5.30;95.50;;;;;;2072910;28;20128;-89
2021/11/27 00:44:29;;;;;;;10.95;8.05;;;5.30;95.50;;;;;;2079277;28;20116;-89
2021/11/27 00:45:30;;;;;;;10.73;7.60;;;5.30;95.50;;;;;;2081095;28;20031;-88
2021/11/27 00:46:31;;;;;;;10.98;7.95;;;5.30;95.50;;;;;;2081249;28;20036;-89
2021/11/27 00:47:32;;;;;;;11.20;8.40;;;5.30;95.50;;;;;;2082332;28;20037;-90
2021/11/27 00:48:34;;;;;;;10.40;7.47;;;5.30;95.50;;;;;;2067575;28;20031;-88
2021/11/27 00:49:35;;;;;;;10.60;7.78;;;5.30;95.80;;;;;;2059181;28;20121;-90
2021/11/27 00:50:50;;;;;;;10.27;7.32;;;5.30;95.50;;;;;;2073911;28;20022;-90
2021/11/27 00:51:51;;;;;;;9.68;6.85;;;5.30;95.50;;;;;;2075520;28;20112;-89
2021/11/27 00:52:52;;;;;;;10.77;7.50;;;5.20;95.50;;;;;;2074174;28;20037;-89
2021/11/27 00:53:53;;;;;;;10.65;7.60;;;5.20;95.50;;;;;;2064199;28;20026;-89
2021/11/27 00:54:54;;;;;;;10.48;7.35;;;5.20;95.50;;;;;;2066458;28;20499;-89
2021/11/27 00:55:54;;;;;;;9.93;7.00;;;5.20;95.50;;;;;;2064663;28;20041;-88
2021/11/27 00:56:55;;;;;;;10.05;6.97;;;5.20;95.50;;;;;;2065727;28;20173;-88
2021/11/27 00:57:56;;;;;;;9.73;7.25;;;5.20;95.50;;;;;;2073095;28;20436;-89
2021/11/27 00:58:56;;;;;;;11.27;8.07;;;5.20;95.50;;;;;;2072765;28;20038;-89
2021/11/27 00:59:57;;;;;;;9.55;6.80;;;5.20;95.50;;;;;;2079022;28;20089;-89
2021/11/27 01:01:02;;;;;;;9.85;6.95;;;5.20;95.50;;;;;;2089685;28;20337;-88
2021/11/27 01:02:04;;;;;;;10.70;7.30;;;5.10;95.50;;;;;;2087904;28;20483;-88
2021/11/27 01:03:06;;;;;;;9.82;6.95;;;5.20;95.50;;;;;;2082896;28;20064;-89
2021/11/27 01:04:07;;;;;;;10.73;7.47;;;5.20;95.50;;;;;;2086076;28;20457;-90
2021/11/27 01:05:10;;;;;;;9.95;6.85;;;5.20;95.50;;;;;;2081656;28;20049;-89
2021/11/27 01:06:13;;;;;;;10.82;7.10;;;5.20;95.50;;;;;;2074984;28;20497;-89
2021/11/27 01:07:14;;;;;;;10.55;7.75;;;5.10;95.50;;;;;;2086612;28;20028;-88
2021/11/27 01:08:15;;;;;;;10.70;7.30;;;5.10;95.50;;;;;;2075884;28;20117;-88
2021/11/27 01:09:16;;;;;;;10.68;6.95;;;5.10;95.50;;;;;;2087506;28;20383;-88
2021/11/27 01:10:20;;;;;;;9.77;7.13;;;5.10;95.50;;;;;;2090830;28;20045;-89
2021/11/27 01:11:34;;;;;;;10.35;7.07;;;5.10;95.50;;;;;;2089267;28;20527;-89
2021/11/27 01:12:34;;;;;;;10.43;7.32;;;5.10;95.50;;;;;;2082731;28;20068;-89
2021/11/27 01:13:37;;;;;;;10.88;7.13;;;5.10;95.50;;;;;;2079426;28;20456;-89
2021/11/27 01:14:39;;;;;;;10.80;6.80;;;5.10;95.50;;;;;;2082699;28;20018;-88
2021/11/27 01:15:40;;;;;;;10.18;6.95;;;5.10;95.70;;;;;;2090473;28;20418;-89
2021/11/27 01:16:43;;;;;;;10.35;6.85;;;5.00;95.40;;;;;;2090529;28;20032;-89
2021/11/27 01:17:45;;;;;;;9.77;6.38;;;5.00;95.50;;;;;;2087604;28;20037;-87
2021/11/27 01:18:47;;;;;;;9.82;6.45;;;5.00;95.50;;;;;;2092060;28;20006;-85
2021/11/27 01:19:48;;;;;;;10.20;6.68;;;5.00;95.50;;;;;;2090613;28;20022;-88
2021/11/27 01:20:57;;;;;;;9.48;6.40;;;5.00;95.50;;;;;;2086657;28;20197;-85
2021/11/27 01:22:08;;;;;;;10.10;5.93;;;5.00;95.60;;;;;;2089004;28;20018;-85
2021/11/27 01:23:10;;;;;;;10.18;6.18;;;5.00;95.60;;;;;;2100373;28;20020;-85
2021/11/27 01:24:13;;;;;;;9.32;6.03;;;5.00;95.60;;;;;;2083669;28;20081;-85
2021/11/27 01:25:14;;;;;;;9.18;6.03;;;5.00;95.60;;;;;;2059322;28;20035;-89
2021/11/27 01:26:16;;;;;;;9.30;5.68;;;5.00;95.60;;;;;;2074256;28;20077;-89
2021/11/27 01:27:17;;;;;;;9.00;5.65;;;5.00;95.60;;;;;;2080366;28;20033;-89
2021/11/27 01:28:19;;;;;;;8.85;5.72;;;5.00;95.80;;;;;;2090888;28;20023;-89
2021/11/27 01:29:21;;;;;;;8.57;5.50;;;5.00;95.60;;;;;;2081157;28;20033;-89
2021/11/27 01:30:22;;;;;;;8.93;5.80;;;5.00;95.60;;;;;;2076970;28;20018;-89
2021/11/27 01:31:23;;;;;;;8.52;5.45;;;5.00;95.60;;;;;;2090924;28;20098;-89
2021/11/27 01:32:24;;;;;;;7.90;5.13;;;5.00;95.60;;;;;;2079366;28;20028;-89
2021/11/27 01:33:26;;;;;;;7.80;4.78;;;5.00;95.50;;;;;;2090696;28;20037;-88
2021/11/27 01:34:27;;;;;;;8.43;5.20;;;5.00;95.50;;;;;;2088298;28;20063;-88
2021/11/27 01:35:27;;;;;;;7.18;4.88;;;5.00;95.50;;;;;;2091435;28;20032;-89
2021/11/27 01:36:28;;;;;;;8.10;4.93;;;5.00;95.80;;;;;;2082695;28;20085;-89
2021/11/27 01:37:29;;;;;;;7.60;4.60;;;5.00;95.50;;;;;;2065955;28;20150;-89
2021/11/27 01:38:30;;;;;;;8.68;4.65;;;5.00;95.50;;;;;;2072631;28;20100;-90
2021/11/27 01:39:31;;;;;;;7.82;4.20;;;5.00;95.50;;;;;;2090326;28;20021;-89
2021/11/27 01:40:32;;;;;;;7.35;4.25;;;5.00;95.50;;;;;;2081510;28;20030;-89
2021/11/27 01:41:35;;;;;;;7.00;4.30;;;5.00;95.60;;;;;;2074253;28;20026;-88
2021/11/27 01:42:35;;;;;;;6.07;3.95;;;5.00;95.50;;;;;;2081007;28;20057;-89
2021/11/27 01:43:39;;;;;;;6.65;3.95;;;5.00;95.50;;;;;;2082584;28;20037;-90
2021/11/27 01:44:40;;;;;;;7.07;4.20;;;5.00;95.50;;;;;;2089603;28;20020;-88
2021/11/27 01:45:41;;;;;;;7.82;4.35;;;5.00;95.50;;;;;;2072395;28;20452;-89
2021/11/27 01:46:42;;;;;;;7.45;4.43;;;5.00;95.50;;;;;;2065841;28;20094;-89
2021/11/27 01:48:04;;;;;;;6.80;3.92;;;5.00;95.50;;;;;;2081858;28;20025;-89
2021/11/27 01:49:06;;;;;;;7.05;4.15;;;5.00;95.50;;;;;;2085550;28;20123;-89
2021/11/27 01:50:08;;;;;;;6.38;4.05;;;5.00;95.50;;;;;;2081218;28;20165;-89
2021/11/27 01:51:13;;;;;;;6.50;3.85;;;5.00;95.50;;;;;;2080979;28;20117;-89
2021/11/27 01:52:13;;;;;;;6.88;4.10;;;5.00;95.50;;;;;;2090310;28;20048;-89
2021/11/27 01:53:16;;;;;;;6.30;3.80;;;5.00;95.50;;;;;;2090184;28;20033;-89
2021/11/27 01:54:17;;;;;;;6.93;3.97;;;5.00;95.50;;;;;;2091423;28;20044;-89
2021/11/27 01:55:17;;;;;;;6.85;3.90;;;5.00;95.50;;;;;;2081473;28;20026;-89
2021/11/27 01:56:22;;;;;;;8.05;4.20;;;5.00;95.50;;;;;;2074088;28;20091;-88
2021/11/27 01:57:23;;;;;;;7.25;4.00;;;5.00;95.50;;;;;;2074037;28;20108;-88
2021/11/27 01:58:24;;;;;;;6.90;3.58;;;5.00;95.40;;;;;;2080778;28;20033;-90
2021/11/27 01:59:27;;;;;;;6.47;3.80;;;5.00;95.40;;;;;;2089731;28;20017;-89
2021/11/27 02:00:33;;;;;;;7.75;3.85;;;5.00;95.40;;;;;;2089615;28;20033;-89
2021/11/27 02:01:35;;;;;;;5.95;3.15;;;5.00;95.40;;;;;;2086874;28;20120;-88
2021/11/27 02:02:35;;;;;;;5.15;3.08;;;4.90;95.40;;;;;;2076205;28;20037;-89
2021/11/27 02:03:37;;;;;;;5.80;3.08;;;4.90;95.40;;;;;;2065002;28;20421;-89
2021/11/27 02:04:39;;;;;;;5.57;2.97;;;4.90;95.30;;;;;;2057929;28;20033;-88
2021/11/27 02:05:40;;;;;;;5.35;2.92;;;4.80;95.30;;;;;;2066930;28;20113;-88
2021/11/27 02:06:42;;;;;;;4.88;2.70;;;4.80;95.30;;;;;;2080611;28;20036;-89
2021/11/27 02:07:43;;;;;;;6.18;2.70;;;4.70;95.30;;;;;;2071839;28;20038;-89
2021/11/27 02:08:49;;;;;;;4.57;2.42;;;4.70;95.40;;;;;;2082476;28;20072;-89
2021/11/27 02:09:50;;;;;;;4.78;2.58;;;4.70;95.40;;;;;;2085541;28;20513;-88
2021/11/27 02:10:51;;;;;;;3.97;2.40;;;4.60;95.40;;;;;;2081182;28;20294;-89
2021/11/27 02:11:53;;;;;;;5.45;2.38;;;4.60;95.50;;;;;;2079820;28;20056;-89
2021/11/27 02:12:54;;;;;;;3.67;2.13;;;4.60;95.50;;;;;;2072891;28;20026;-89
2021/11/27 02:13:55;;;;;;;3.90;1.92;;;4.60;95.50;;;;;;2073670;28;20492;-88
2021/11/27 02:14:57;;;;;;;2.95;1.70;;;4.60;95.50;;;;;;2074247;28;20088;-88
2021/11/27 02:15:58;;;;;;;3.58;1.55;;;4.60;95.50;;;;;;2081727;28;20100;-88
2021/11/27 02:16:58;;;;;;;4.20;1.70;;;4.60;95.50;;;;;;2080216;28;20056;-89
2021/11/27 02:17:59;;;;;;;3.05;1.73;;;4.60;95.50;;;;;;2074099;28;20028;-89
2021/11/27 02:19:00;;;;;;;3.00;1.42;;;4.60;95.50;;;;;;2066012;28;20082;-89
2021/11/27 02:20:01;;;;;;;3.22;1.40;;;4.50;95.60;;;;;;2081972;28;20562;-88
2021/11/27 02:21:06;;;;;;;2.60;1.25;;;4.50;95.60;;;;;;2089545;28;20033;-89
2021/11/27 02:22:07;;;;;;;2.65;1.30;;;4.50;95.60;;;;;;2085380;28;20539;-89
2021/11/27 02:23:08;;;;;;;2.40;1.35;;;4.50;95.50;;;;;;2081155;28;20046;-89
2021/11/27 02:24:09;;;;;;;3.65;1.40;;;4.50;95.50;;;;;;2073388;28;20022;-89
2021/11/27 02:25:14;;;;;;;2.45;1.27;;;4.50;95.60;;;;;;2078715;28;20047;-89
2021/11/27 02:26:17;;;;;;;2.05;1.20;;;4.50;95.60;;;;;;2076480;28;20503;-88
2021/11/27 02:27:19;;;;;;;2.20;1.13;;;4.50;95.60;;;;;;2089420;28;20033;-89
2021/11/27 02:28:20;;;;;;;2.38;1.10;;;4.50;95.60;;;;;;2081880;28;20026;-89
2021/11/27 02:29:25;;;;;;;2.42;1.08;;;4.50;95.60;;;;;;2073177;28;20415;-88
2021/11/27 02:30:27;;;;;;;2.13;0.95;;;4.50;95.60;;;;;;2082508;28;20508;-88
2021/11/27 02:31:29;;;;;;;1.40;0.90;;;4.50;95.60;;;;;;2098516;28;20124;-89
2021/11/27 02:32:30;;;;;;;1.85;0.98;;;4.40;95.50;;;;;;2089321;28;20175;-88
2021/11/27 02:33:30;;;;;;;1.33;0.90;;;4.40;95.50;;;;;;2090861;28;20048;-89
2021/11/27 02:34:31;;;;;;;1.30;0.80;;;4.40;95.60;;;;;;2077311;28;20097;-88
2021/11/27 02:35:32;;;;;;;1.38;0.65;;;4.40;95.60;;;;;;2090272;28;20033;-89
2021/11/27 02:36:34;;;;;;;2.10;0.88;;;4.40;95.60;;;;;;2085832;28;20060;-88
2021/11/27 02:37:35;;;;;;;1.83;0.80;;;4.40;95.60;;;;;;2082587;28;20049;-89
2021/11/27 02:38:36;;;;;;;2.72;1.00;;;4.30;95.50;;;;;;2070099;28;20500;-89
2021/11/27 02:39:38;;;;;;;4.18;0.73;;;4.30;95.50;;;;;;2065295;28;20484;-89
2021/11/27 02:40:39;;;;;;;1.67;0.80;;;4.30;95.60;;;;;;2073995;28;20025;-89
2021/11/27 02:41:39;;;;;;;1.15;0.70;;;4.30;95.60;;;;;;2086949;28;20467;-89
2021/11/27 02:42:40;;;;;;;2.28;1.10;;;4.30;95.50;;;;;;2072905;28;20148;-89
2021/11/27 02:43:41;;;;;;;2.13;0.70;;;4.30;95.50;;;;;;2058226;28;20041;-89
2021/11/27 02:44:42;;;;;;;1.88;0.73;;;4.30;95.50;;;;;;2064537;28;20025;-89
2021/11/27 02:45:43;;;;;;;1.38;0.68;;;4.30;95.60;;;;;;2073989;28;20060;-89
2021/11/27 02:46:43;;;;;;;1.63;0.70;;;4.30;95.60;;;;;;2080614;28;20021;-89
2021/11/27 02:47:44;;;;;;;2.13;0.65;;;4.30;95.60;;;;;;2081271;28;20091;-88
2021/11/27 02:48:45;;;;;;;2.20;0.80;;;4.30;95.60;;;;;;2065800;28;20130;-88
2021/11/27 02:49:45;;;;;;;1.25;0.80;;;4.30;95.60;;;;;;2057554;28;20050;-89
2021/11/27 02:50:46;;;;;;;3.00;0.70;;;4.30;95.60;;;;;;2082088;28;20030;-89
2021/11/27 02:51:48;;;;;;;1.90;0.60;;;4.30;95.60;;;;;;2087798;28;20376;-89
2021/11/27 02:52:48;;;;;;;3.35;0.60;;;4.30;95.50;;;;;;2081720;28;20063;-89
2021/11/27 02:53:49;;;;;;;3.85;0.68;;;4.30;95.50;;;;;;2080870;28;20079;-89
2021/11/27 02:54:50;;;;;;;1.73;0.75;;;4.20;95.50;;;;;;2081985;28;20092;-89
2021/11/27 02:55:50;;;;;;;1.13;0.60;;;4.30;95.60;;;;;;2087888;28;20135;-89
2021/11/27 02:56:52;;;;;;;2.00;0.70;;;4.30;95.60;;;;;;2081043;28;20476;-89
2021/11/27 02:57:53;;;;;;;1.67;0.60;;;4.20;95.60;;;;;;2081295;28;20415;-88
2021/11/27 02:58:53;;;;;;;0.82;0.55;;;4.30;95.60;;;;;;2073134;28;20116;-89
2021/11/27 02:59:54;;;;;;;1.00;0.60;;;4.20;95.50;;;;;;2056091;28;20065;-89
2021/11/27 03:00:58;;;;;;;1.48;0.70;;;4.20;95.60;;;;;;2065797;28;20034;-89
2021/11/27 03:02:01;;;;;;;1.90;0.50;;;4.20;95.60;;;;;;2089307;28;20061;-90
2021/11/27 03:03:02;;;;;;;1.95;0.60;;;4.20;95.60;;;;;;2088721;28;22707;-90
2021/11/27 03:04:03;;;;;;;0.98;0.50;;;4.20;95.60;;;;;;2080425;28;20135;-90
2021/11/27 03:05:04;;;;;;;1.20;0.57;;;4.20;95.60;;;;;;2076329;28;20058;-86
2021/11/27 03:06:05;;;;;;;2.00;0.63;;;4.20;95.60;;;;;;2089970;28;20002;-88
2021/11/27 03:07:06;;;;;;;1.30;0.55;;;4.20;95.60;;;;;;2090843;28;20021;-89
2021/11/27 03:08:07;;;;;;;2.03;0.60;;;4.20;95.60;;;;;;2099246;28;20033;-85
2021/11/27 03:09:09;;;;;;;2.47;0.52;;;4.20;95.60;;;;;;2082075;28;20069;-85
2021/11/27 03:10:12;;;;;;;0.75;0.52;;;4.20;95.60;;;;;;2082654;28;20034;-86
2021/11/27 03:11:13;;;;;;;2.03;0.65;;;4.20;95.60;;;;;;2088910;28;20489;-87
2021/11/27 03:12:14;;;;;;;1.10;0.52;;;4.20;95.60;;;;;;2088742;28;20042;-90
2021/11/27 03:13:15;;;;;;;1.55;0.68;;;4.20;95.60;;;;;;2080865;28;20032;-90
2021/11/27 03:14:17;;;;;;;2.10;0.60;;;4.20;95.60;;;;;;2090131;28;20131;-90
2021/11/27 03:15:19;;;;;;;1.42;0.57;;;4.20;95.60;;;;;;2073087;28;20467;-90
2021/11/27 03:16:28;;;;;;;3.15;0.80;;;4.20;95.60;;;;;;2074052;28;20484;-90
2021/11/27 03:17:28;;;;;;;1.83;0.80;;;4.20;95.90;;;;;;2081319;28;20053;-90
2021/11/27 03:18:29;;;;;;;0.85;0.60;;;4.20;95.60;;;;;;2073565;28;20030;-90
2021/11/27 03:19:33;;;;;;;1.70;0.63;;;4.20;95.60;;;;;;2072771;28;20018;-90
2021/11/27 03:20:33;;;;;;;1.40;0.60;;;4.20;95.50;;;;;;2089155;28;20017;-90
2021/11/27 03:21:34;;;;;;;2.00;0.80;;;4.10;95.50;;;;;;2080732;28;20029;-90
2021/11/27 03:22:35;;;;;;;1.77;0.80;;;4.10;95.50;;;;;;2081525;28;20030;-89
2021/11/27 03:23:36;;;;;;;1.92;0.60;;;4.10;95.50;;;;;;2080939;28;20596;-90
2021/11/27 03:24:38;;;;;;;1.25;0.55;;;4.10;95.60;;;;;;2073661;28;20485;-90
2021/11/27 03:25:40;;;;;;;1.80;0.82;;;4.10;95.80;;;;;;2081090;28;20116;-90
2021/11/27 03:26:41;;;;;;;2.22;0.60;;;4.10;95.60;;;;;;2082067;28;20025;-90
2021/11/27 03:27:42;;;;;;;1.20;0.60;;;4.10;95.60;;;;;;2070360;28;20476;-90
2021/11/27 03:28:45;;;;;;;1.00;0.80;;;4.10;95.60;;;;;;2058787;28;20065;-89
2021/11/27 03:29:45;;;;;;;1.08;0.80;;;4.10;95.60;;;;;;2090427;28;20025;-90
2021/11/27 03:30:46;;;;;;;1.52;0.70;;;4.10;95.60;;;;;;2083132;28;20034;-90
2021/11/27 03:31:47;;;;;;;0.82;0.52;;;4.10;95.60;;;;;;2072783;28;20441;-90
2021/11/27 03:32:48;;;;;;;1.75;0.60;;;4.10;95.60;;;;;;2072927;28;20029;-90
2021/11/27 03:33:49;;;;;;;1.40;0.70;;;4.10;95.60;;;;;;2072580;28;20120;-90
2021/11/27 03:34:51;;;;;;;1.23;0.60;;;4.10;95.60;;;;;;2081496;28;20124;-90
2021/11/27 03:35:51;;;;;;;1.20;0.60;;;4.10;95.90;;;;;;2089054;28;20025;-90
2021/11/27 03:36:52;;;;;;;1.50;0.60;;;4.10;95.60;;;;;;2090225;28;20017;-90
2021/11/27 03:37:53;;;;;;;1.67;0.70;;;4.10;95.60;;;;;;2089169;28;20075;-90
2021/11/27 03:38:53;;;;;;;2.28;0.75;;;4.10;95.60;;;;;;2087179;28;20048;-90
2021/11/27 03:39:54;;;;;;;1.88;0.70;;;4.00;95.50;;;;;;2073401;28;20040;-90
2021/11/27 03:40:55;;;;;;;1.58;0.80;;;4.10;95.50;;;;;;2086128;28;20053;-90
2021/11/27 03:42:00;;;;;;;0.80;0.70;;;4.00;95.50;;;;;;2088352;28;20025;-90
2021/11/27 03:43:01;;;;;;;1.30;0.77;;;4.00;95.50;;;;;;2086188;28;20051;-90
2021/11/27 03:44:02;;;;;;;1.08;0.70;;;4.00;95.50;;;;;;2072584;28;20041;-90
2021/11/27 03:45:05;;;;;;;1.17;0.70;;;4.00;95.50;;;;;;2064667;28;20030;-89
2021/11/27 03:46:07;;;;;;;1.25;0.75;;;4.00;95.50;;;;;;2079887;28;20018;-89
2021/11/27 03:47:08;;;;;;;1.95;0.82;;;4.00;95.50;;;;;;2084354;28;20037;-90
2021/11/27 03:48:12;;;;;;;1.35;0.80;;;3.90;95.50;;;;;;2084536;28;20025;-90
2021/11/27 03:49:13;;;;;;;2.50;0.80;;;3.90;95.50;;;;;;2096596;28;20040;-88
2021/11/27 03:50:13;;;;;;;1.77;0.88;;;3.90;95.50;;;;;;2091517;28;20029;-91
2021/11/27 03:51:18;;;;;;;1.70;0.90;;;3.90;95.50;;;;;;2076324;28;20041;-90
2021/11/27 03:52:20;;;;;;;1.63;0.80;;;3.90;95.60;;;;;;2084622;28;20030;-90
2021/11/27 03:53:26;;;;;;;0.90;0.70;;;3.90;95.60;;;;;;2091427;28;20049;-90
2021/11/27 03:54:28;;;;;;;1.27;0.60;;;3.90;95.60;;;;;;2093024;28;20096;-90
2021/11/27 03:55:28;;;;;;;1.13;0.70;;;3.90;95.60;;;;;;2088956;28;20025;-90
2021/11/27 03:56:30;;;;;;;2.03;0.70;;;3.90;95.60;;;;;;2088654;28;20033;-90
2021/11/27 03:57:31;;;;;;;1.83;0.70;;;3.90;95.60;;;;;;2089350;28;20025;-90
2021/11/27 03:58:33;;;;;;;1.52;0.80;;;3.90;95.60;;;;;;2080976;28;20476;-89
2021/11/27 03:59:34;;;;;;;1.25;0.90;;;3.90;95.60;;;;;;2087591;28;20059;-90
2021/11/27 04:00:36;;;;;;;1.35;0.70;;;3.90;95.60;;;;;;2076418;28;20061;-90
2021/11/27 04:01:37;;;;;;;1.20;0.70;;;3.90;95.60;;;;;;2064444;28;20053;-90
2021/11/27 04:02:38;;;;;;;2.05;0.82;;;3.90;95.50;;;;;;2044679;29;20031;-90
2021/11/27 04:03:41;;;;;;;1.70;0.88;;;3.90;95.50;;;;;;2049234;28;20027;-89
2021/11/27 04:04:42;;;;;;;1.13;0.70;;;3.80;95.50;;;;;;2064912;28;20026;-90
2021/11/27 04:05:47;;;;;;;0.90;0.60;;;3.80;95.50;;;;;;2072561;28;20034;-90
2021/11/27 04:06:48;;;;;;;1.63;0.70;;;3.80;95.60;;;;;;2064893;28;20026;-90
2021/11/27 04:07:54;;;;;;;2.22;0.80;;;3.80;95.60;;;;;;2056514;28;20027;-90
2021/11/27 04:08:58;;;;;;;1.30;0.70;;;3.80;95.60;;;;;;2057950;28;20051;-90
2021/11/27 04:09:58;;;;;;;1.17;0.70;;;3.80;95.60;;;;;;2057331;28;20027;-90
2021/11/27 04:11:00;;;;;;;1.30;0.75;;;3.80;95.60;;;;;;2048768;28;20059;-90
2021/11/27 04:12:00;;;;;;;1.75;0.70;;;3.80;95.60;;;;;;2060984;28;20422;-90
2021/11/27 04:13:01;;;;;;;1.33;0.80;;;3.80;95.60;;;;;;2064665;28;20089;-90
2021/11/27 04:14:03;;;;;;;1.98;0.70;;;3.80;95.60;;;;;;2065043;28;20526;-89
2021/11/27 04:15:04;;;;;;;1.02;0.70;;;3.80;95.50;;;;;;2071918;28;20033;-89
2021/11/27 04:16:05;;;;;;;1.63;0.80;;;3.80;95.50;;;;;;2063233;28;20503;-90
2021/11/27 04:17:06;;;;;;;1.02;0.70;;;3.80;95.50;;;;;;2072759;28;20033;-89
2021/11/27 04:18:07;;;;;;;1.23;0.70;;;3.80;95.50;;;;;;2065090;28;20129;-90
2021/11/27 04:19:08;;;;;;;0.95;0.77;;;3.80;95.50;;;;;;2058227;28;20038;-90
2021/11/27 04:20:09;;;;;;;0.95;0.60;;;3.80;95.50;;;;;;2056931;28;20077;-89
2021/11/27 04:21:11;;;;;;;1.20;0.73;;;3.80;95.50;;;;;;2055513;28;20121;-90
2021/11/27 04:22:12;;;;;;;1.17;0.70;;;3.80;95.50;;;;;;2078569;28;20029;-90
2021/11/27 04:23:13;;;;;;;1.60;0.70;;;3.70;95.50;;;;;;2072783;28;20088;-90
2021/11/27 04:24:14;;;;;;;0.90;0.70;;;3.70;95.50;;;;;;2073062;28;20026;-90
2021/11/27 04:25:15;;;;;;;1.25;0.70;;;3.70;95.50;;;;;;2073945;28;20486;-90
2021/11/27 04:26:19;;;;;;;0.82;0.60;;;3.70;95.40;;;;;;2077249;28;20484;-90
2021/11/27 04:27:19;;;;;;;0.80;0.57;;;3.70;95.40;;;;;;2068844;28;20034;-90
2021/11/27 04:28:20;;;;;;;1.35;0.70;;;3.70;95.40;;;;;;2059397;28;20508;-90
2021/11/27 04:29:21;;;;;;;1.00;0.60;;;3.70;95.30;;;;;;2067927;28;20449;-89
2021/11/27 04:30:26;;;;;;;1.33;0.60;;;3.60;95.30;;;;;;2071503;28;20038;-89
2021/11/27 04:31:27;;;;;;;0.93;0.60;;;3.60;95.40;;;;;;2064317;28;20018;-90
2021/11/27 04:32:27;;;;;;;1.00;0.50;;;3.60;95.40;;;;;;2070759;28;20034;-90
2021/11/27 04:33:28;;;;;;;0.93;0.45;;;3.50;95.40;;;;;;2069798;28;20764;-90
2021/11/27 04:34:29;;;;;;;1.23;0.70;;;3.50;95.50;;;;;;2057000;28;20441;-90
2021/11/27 04:35:31;;;;;;;0.70;0.52;;;3.50;95.40;;;;;;2056791;28;20117;-90
2021/11/27 04:36:32;;;;;;;1.65;0.68;;;3.50;95.70;;;;;;2056807;28;20038;-90
2021/11/27 04:37:32;;;;;;;0.60;0.40;;;3.50;95.50;;;;;;2048533;28;20142;-90
2021/11/27 04:38:33;;;;;;;1.27;0.63;;;3.50;95.50;;;;;;2056538;28;20105;-89
2021/11/27 04:39:34;;;;;;;0.60;0.50;;;3.40;95.50;;;;;;2068616;28;20113;-90
2021/11/27 04:40:35;;;;;;;0.80;0.70;;;3.40;95.50;;;;;;2054515;28;20094;-90
2021/11/27 04:41:36;;;;;;;0.68;0.50;;;3.40;95.50;;;;;;2062567;28;20030;-90
2021/11/27 04:42:37;;;;;;;1.00;0.50;;;3.40;95.50;;;;;;2059218;28;20053;-89
2021/11/27 04:43:37;;;;;;;0.88;0.50;;;3.40;95.60;;;;;;2048351;28;20039;-90
2021/11/27 04:44:39;;;;;;;0.88;0.50;;;3.40;95.60;;;;;;2053721;28;20071;-90
2021/11/27 04:45:39;;;;;;;0.80;0.40;;;3.40;95.50;;;;;;2043324;28;20570;-89
2021/11/27 04:46:40;;;;;;;0.50;0.38;;;3.40;95.50;;;;;;2055718;28;20219;-90
2021/11/27 04:47:41;;;;;;;0.90;0.50;;;3.40;95.50;;;;;;2054552;28;20580;-90
2021/11/27 04:48:42;;;;;;;1.00;0.47;;;3.30;95.50;;;;;;2055667;28;20105;-89
2021/11/27 04:49:43;;;;;;;0.88;0.50;;;3.30;95.60;;;;;;2085152;28;20041;-89
2021/11/27 04:50:44;;;;;;;1.02;0.50;;;3.30;95.50;;;;;;2070486;28;20057;-88
2021/11/27 04:51:45;;;;;;;1.17;0.40;;;3.30;95.50;;;;;;2065543;28;20103;-86
2021/11/27 04:52:46;;;;;;;0.95;0.43;;;3.30;95.50;;;;;;2055068;28;20438;-86
2021/11/27 04:53:47;;;;;;;0.68;0.40;;;3.30;95.50;;;;;;2055874;28;20027;-89
2021/11/27 04:54:48;;;;;;;0.88;0.43;;;3.30;95.50;;;;;;2069584;28;20018;-89
2021/11/27 04:55:49;;;;;;;1.58;0.47;;;3.30;95.50;;;;;;2056514;28;20066;-89
2021/11/27 04:56:49;;;;;;;0.90;0.50;;;3.30;95.50;;;;;;2055646;28;20023;-89
2021/11/27 04:57:50;;;;;;;0.70;0.50;;;3.30;95.50;;;;;;2072789;28;20080;-89
2021/11/27 04:58:51;;;;;;;1.20;0.40;;;3.30;95.50;;;;;;2073027;28;20086;-90
2021/11/27 04:59:51;;;;;;;1.27;0.47;;;3.30;95.50;;;;;;2077475;28;20034;-90
2021/11/27 05:00:53;;;;;;;1.95;0.40;;;3.30;95.50;;;;;;2087331;28;20049;-88
2021/11/27 05:01:54;;;;;;;0.77;0.45;;;3.30;95.50;;;;;;2088534;28;20021;-89
2021/11/27 05:02:55;;;;;;;0.60;0.40;;;3.20;95.40;;;;;;2089309;28;20483;-89
2021/11/27 05:03:55;;;;;;;0.38;0.30;;;3.20;95.50;;;;;;2081134;28;20069;-89
2021/11/27 05:04:56;;;;;;;1.08;0.50;;;3.20;95.70;;;;;;2073317;28;20144;-89
2021/11/27 05:05:57;;;;;;;0.38;0.30;;;3.20;95.50;;;;;;2088292;28;20479;-90
2021/11/27 05:06:58;;;;;;;0.95;0.40;;;3.20;95.50;;;;;;2088578;28;20119;-90
2021/11/27 05:07:58;;;;;;;0.47;0.32;;;3.20;95.50;;;;;;2086577;28;20056;-90
2021/11/27 05:08:59;;;;;;;0.30;0.30;;;3.20;95.50;;;;;;2080687;28;20033;-89
2021/11/27 05:10:00;;;;;;;0.38;0.30;;;3.20;95.50;;;;;;2080676;28;20394;-89
2021/11/27 05:11:01;;;;;;;0.77;0.30;;;3.20;95.50;;;;;;2079783;28;20120;-89
2021/11/27 05:12:01;;;;;;;1.13;0.30;;;3.20;95.50;;;;;;2071329;28;20029;-90
2021/11/27 05:13:02;;;;;;;0.38;0.30;;;3.10;95.50;;;;;;2071529;28;20045;-89
2021/11/27 05:14:03;;;;;;;0.90;0.40;;;3.10;95.50;;;;;;2080532;28;20022;-89
2021/11/27 05:15:05;;;;;;;0.30;0.30;;;3.10;95.60;;;;;;2074106;28;20048;-89
2021/11/27 05:16:07;;;;;;;0.35;0.28;;;3.10;95.60;;;;;;2072700;28;20073;-89
2021/11/27 05:17:08;;;;;;;0.57;0.20;;;3.10;95.60;;;;;;2071560;28;20042;-89
2021/11/27 05:18:09;;;;;;;0.80;0.30;;;3.10;95.80;;;;;;2072801;28;20073;-89
2021/11/27 05:19:10;;;;;;;0.63;0.30;;;3.10;95.50;;;;;;2072390;28;20069;-90
2021/11/27 05:20:11;;;;;;;1.00;0.38;;;3.10;95.50;;;;;;2079025;28;20094;-89
2021/11/27 05:21:11;;;;;;;0.75;0.30;;;3.10;95.60;;;;;;2087208;28;20462;-90
2021/11/27 05:22:13;;;;;;;0.68;0.40;;;3.00;95.50;;;;;;2080226;28;20138;-90
2021/11/27 05:23:13;;;;;;;0.50;0.30;;;3.00;95.50;;;;;;2080717;28;20029;-90
2021/11/27 05:24:14;;;;;;;0.98;0.50;;;3.00;95.50;;;;;;2080619;28;20064;-90